Ball, North Carolina
Current Conditions -  °F | °C
As of 6:35 PM on Saturday 22 Nov 2014 (Local Time) from KGEV Reporting Station
Clear Clear  
Wind Chill: 37°   Ceiling: Unl
Heat Index: 37°   Visibility: 10mi
Dew Point: 15°   Wind: 0mph
Humidity: 40%   Direction: NA
Pressure: 30.27"   Gusts: NA
Location:  36.524°N, 81.538°W
Report Text: KGEV 222335Z AUTO 00000KT 10SM CLR 03/M09 A3027 RMK AO2 T00291094
Loading
Personal Weather Stations






























Interactive Weather Map New forecast layout! Learn more

10-Day Weather Forecast

Advertisements
Track Severe Weather on mobile